Maynard, Arkansas
Current Conditions -  °F | °C
As of 7:15 AM on Thursday 23 Oct 2014 (Local Time) from K4M9 Reporting Station
Clear Clear  
Wind Chill: 38°   Ceiling: Unl
Heat Index: 41°   Visibility: 8mi
Dew Point: 41°   Wind: 5mph
Humidity: 100%   Direction: 40°NE
Pressure: 30.21"   Gusts: NA
Location:  36.42°N, 90.9°W
Report Text: K4M9 231215Z AUTO 04004KT 8SM CLR 05/05 A3021 RMK AO2
Loading
Personal Weather Stations






























Interactive Weather Map
Tropical Storm Tracking
New forecast layout! Learn more

10-Day Weather Forecast

Advertisements
Track Severe Weather on mobile